sensor_id;sensor_type;location;lat;lon;timestamp;pressure;altitude;pressure_sealevel;temperature;humidity
39275;BME280;24980;48.874;2.332;2023-03-01T00:00:24;102219.82;;;28.16;31.57
39275;BME280;24980;48.874;2.332;2023-03-01T00:02:55;102221.17;;;28.18;31.61
39275;BME280;24980;48.874;2.332;2023-03-01T00:05:25;102220.66;;;28.19;31.66
39275;BME280;24980;48.874;2.332;2023-03-01T00:07:55;102222.23;;;28.19;31.72
39275;BME280;24980;48.874;2.332;2023-03-01T00:10:25;102221.84;;;28.19;31.80
39275;BME280;24980;48.874;2.332;2023-03-01T00:12:55;102225.43;;;28.19;31.85
39275;BME280;24980;48.874;2.332;2023-03-01T00:15:25;102223.52;;;28.19;31.92
39275;BME280;24980;48.874;2.332;2023-03-01T00:17:56;102227.42;;;28.21;31.97
39275;BME280;24980;48.874;2.332;2023-03-01T00:20:26;102224.09;;;28.22;32.01
39275;BME280;24980;48.874;2.332;2023-03-01T00:22:56;102228.48;;;28.23;32.06
39275;BME280;24980;48.874;2.332;2023-03-01T00:25:26;102226.31;;;28.22;32.08
39275;BME280;24980;48.874;2.332;2023-03-01T00:27:56;102228.70;;;28.22;32.12
39275;BME280;24980;48.874;2.332;2023-03-01T00:30:26;102228.58;;;28.23;32.14
39275;BME280;24980;48.874;2.332;2023-03-01T00:32:56;102228.14;;;28.24;32.14
39275;BME280;24980;48.874;2.332;2023-03-01T00:35:26;102225.23;;;28.24;32.15
39275;BME280;24980;48.874;2.332;2023-03-01T00:37:57;102224.72;;;28.25;32.17
39275;BME280;24980;48.874;2.332;2023-03-01T00:40:28;102227.64;;;28.23;32.19
39275;BME280;24980;48.874;2.332;2023-03-01T00:42:57;102223.58;;;28.22;32.20
39275;BME280;24980;48.874;2.332;2023-03-01T00:45:28;102221.58;;;28.22;32.21
39275;BME280;24980;48.874;2.332;2023-03-01T00:47:58;102224.72;;;28.24;32.20
39275;BME280;24980;48.874;2.332;2023-03-01T00:50:28;102228.09;;;28.26;32.19
39275;BME280;24980;48.874;2.332;2023-03-01T00:52:58;102226.34;;;28.25;32.20
39275;BME280;24980;48.874;2.332;2023-03-01T00:55:28;102227.45;;;28.25;32.20
39275;BME280;24980;48.874;2.332;2023-03-01T00:57:58;102227.20;;;28.24;32.21
39275;BME280;24980;48.874;2.332;2023-03-01T01:00:29;102231.97;;;28.25;32.20
39275;BME280;24980;48.874;2.332;2023-03-01T01:03:02;102229.11;;;28.27;32.19
39275;BME280;24980;48.874;2.332;2023-03-01T01:05:31;102226.97;;;28.27;32.19
39275;BME280;24980;48.874;2.332;2023-03-01T01:08:00;102229.80;;;28.26;32.21
39275;BME280;24980;48.874;2.332;2023-03-01T01:10:30;102226.63;;;28.26;32.22
39275;BME280;24980;48.874;2.332;2023-03-01T01:13:00;102224.75;;;28.28;32.22
39275;BME280;24980;48.874;2.332;2023-03-01T01:15:34;102226.16;;;28.30;32.22
39275;BME280;24980;48.874;2.332;2023-03-01T01:18:01;102223.16;;;28.31;32.23
39275;BME280;24980;48.874;2.332;2023-03-01T01:20:35;102222.90;;;28.31;32.23
39275;BME280;24980;48.874;2.332;2023-03-01T01:23:04;102220.43;;;28.31;32.23
39275;BME280;24980;48.874;2.332;2023-03-01T01:25:34;102222.56;;;28.31;32.23
39275;BME280;24980;48.874;2.332;2023-03-01T01:28:03;102217.52;;;28.32;32.24
39275;BME280;24980;48.874;2.332;2023-03-01T01:30:33;102220.30;;;28.33;32.24
39275;BME280;24980;48.874;2.332;2023-03-01T01:33:04;102213.89;;;28.34;32.24
39275;BME280;24980;48.874;2.332;2023-03-01T01:35:36;102210.91;;;28.33;32.24
39275;BME280;24980;48.874;2.332;2023-03-01T01:38:04;102205.20;;;28.32;32.25
39275;BME280;24980;48.874;2.332;2023-03-01T01:40:35;102201.74;;;28.32;32.26
39275;BME280;24980;48.874;2.332;2023-03-01T01:43:09;102199.66;;;28.33;32.25
39275;BME280;24980;48.874;2.332;2023-03-01T01:45:36;102194.70;;;28.34;32.26
39275;BME280;24980;48.874;2.332;2023-03-01T01:48:16;102190.61;;;28.34;32.25
39275;BME280;24980;48.874;2.332;2023-03-01T01:50:39;102189.67;;;28.34;32.26
39275;BME280;24980;48.874;2.332;2023-03-01T01:53:13;102192.31;;;28.34;32.26
39275;BME280;24980;48.874;2.332;2023-03-01T01:55:41;102195.22;;;28.34;32.26
39275;BME280;24980;48.874;2.332;2023-03-01T01:58:12;102190.95;;;28.34;32.26
39275;BME280;24980;48.874;2.332;2023-03-01T02:00:39;102196.06;;;28.35;32.26
39275;BME280;24980;48.874;2.332;2023-03-01T02:03:15;102191.05;;;28.33;32.26
39275;BME280;24980;48.874;2.332;2023-03-01T02:05:51;102191.73;;;28.32;32.27
39275;BME280;24980;48.874;2.332;2023-03-01T02:08:12;102191.26;;;28.32;32.27
39275;BME280;24980;48.874;2.332;2023-03-01T02:10:41;102190.06;;;28.32;32.28
39275;BME280;24980;48.874;2.332;2023-03-01T02:13:14;102192.75;;;28.33;32.27
39275;BME280;24980;48.874;2.332;2023-03-01T02:15:42;102186.95;;;28.33;32.26
39275;BME280;24980;48.874;2.332;2023-03-01T02:18:17;102184.56;;;28.33;32.27
39275;BME280;24980;48.874;2.332;2023-03-01T02:23:14;102183.17;;;28.30;32.28
39275;BME280;24980;48.874;2.332;2023-03-01T02:26:01;102178.30;;;28.31;32.29
39275;BME280;24980;48.874;2.332;2023-03-01T02:28:32;102174.62;;;28.32;32.29
39275;BME280;24980;48.874;2.332;2023-03-01T02:30:48;102165.69;;;28.31;32.29
39275;BME280;24980;48.874;2.332;2023-03-01T02:33:16;102165.51;;;28.32;32.31
39275;BME280;24980;48.874;2.332;2023-03-01T02:35:47;102166.62;;;28.30;32.31
39275;BME280;24980;48.874;2.332;2023-03-01T02:38:20;102167.06;;;28.30;32.32
39275;BME280;24980;48.874;2.332;2023-03-01T02:40:51;102163.05;;;28.31;32.33
39275;BME280;24980;48.874;2.332;2023-03-01T02:43:19;102167.00;;;28.33;32.34
39275;BME280;24980;48.874;2.332;2023-03-01T02:45:50;102162.56;;;28.34;32.34
39275;BME280;24980;48.874;2.332;2023-03-01T02:48:19;102159.16;;;28.33;32.33
39275;BME280;24980;48.874;2.332;2023-03-01T02:53:33;102151.82;;;28.33;32.34
39275;BME280;24980;48.874;2.332;2023-03-01T02:55:49;102153.69;;;28.33;32.34
39275;BME280;24980;48.874;2.332;2023-03-01T02:58:20;102158.55;;;28.33;32.33
39275;BME280;24980;48.874;2.332;2023-03-01T03:00:50;102154.80;;;28.33;32.33
39275;BME280;24980;48.874;2.332;2023-03-01T03:03:21;102153.66;;;28.32;32.33
39275;BME280;24980;48.874;2.332;2023-03-01T03:05:51;102146.41;;;28.31;32.34
39275;BME280;24980;48.874;2.332;2023-03-01T03:08:21;102145.30;;;28.31;32.33
39275;BME280;24980;48.874;2.332;2023-03-01T03:10:51;102145.12;;;28.32;32.32
39275;BME280;24980;48.874;2.332;2023-03-01T03:13:22;102141.08;;;28.32;32.32
39275;BME280;24980;48.874;2.332;2023-03-01T03:15:55;102133.27;;;28.32;32.33
39275;BME280;24980;48.874;2.332;2023-03-01T03:18:24;102127.58;;;28.30;32.33
39275;BME280;24980;48.874;2.332;2023-03-01T03:20:54;102127.16;;;28.29;32.34
39275;BME280;24980;48.874;2.332;2023-03-01T03:23:29;102130.39;;;28.30;32.35
39275;BME280;24980;48.874;2.332;2023-03-01T03:25:55;102129.53;;;28.31;32.34
39275;BME280;24980;48.874;2.332;2023-03-01T03:28:25;102131.48;;;28.32;32.33
39275;BME280;24980;48.874;2.332;2023-03-01T03:30:55;102127.98;;;28.32;32.33
39275;BME280;24980;48.874;2.332;2023-03-01T03:33:25;102134.22;;;28.31;32.34
39275;BME280;24980;48.874;2.332;2023-03-01T03:35:58;102134.90;;;28.31;32.34
39275;BME280;24980;48.874;2.332;2023-03-01T03:38:27;102131.78;;;28.32;32.33
39275;BME280;24980;48.874;2.332;2023-03-01T03:41:07;102126.74;;;28.34;32.33
39275;BME280;24980;48.874;2.332;2023-03-01T03:43:29;102124.77;;;28.34;32.32
39275;BME280;24980;48.874;2.332;2023-03-01T03:45:59;102123.58;;;28.34;32.32
39275;BME280;24980;48.874;2.332;2023-03-01T03:48:29;102119.48;;;28.34;32.32
39275;BME280;24980;48.874;2.332;2023-03-01T03:50:59;102123.41;;;28.34;32.32
39275;BME280;24980;48.874;2.332;2023-03-01T03:53:29;102114.92;;;28.36;32.31
39275;BME280;24980;48.874;2.332;2023-03-01T03:56:00;102112.88;;;28.36;32.31
39275;BME280;24980;48.874;2.332;2023-03-01T03:58:30;102109.77;;;28.34;32.32
39275;BME280;24980;48.874;2.332;2023-03-01T04:01:01;102116.00;;;28.33;32.32
39275;BME280;24980;48.874;2.332;2023-03-01T04:03:32;102118.86;;;28.32;32.34
39275;BME280;24980;48.874;2.332;2023-03-01T04:06:02;102118.02;;;28.31;32.34
39275;BME280;24980;48.874;2.332;2023-03-01T04:08:32;102122.61;;;28.32;32.34
39275;BME280;24980;48.874;2.332;2023-03-01T04:11:04;102126.58;;;28.33;32.32
39275;BME280;24980;48.874;2.332;2023-03-01T04:13:33;102125.22;;;28.33;32.33
39275;BME280;24980;48.874;2.332;2023-03-01T04:16:04;102122.88;;;28.32;32.34
39275;BME280;24980;48.874;2.332;2023-03-01T04:18:34;102119.47;;;28.31;32.34
39275;BME280;24980;48.874;2.332;2023-03-01T04:21:04;102126.41;;;28.32;32.34
39275;BME280;24980;48.874;2.332;2023-03-01T04:23:34;102122.66;;;28.33;32.33
39275;BME280;24980;48.874;2.332;2023-03-01T04:26:05;102114.12;;;28.34;32.32
39275;BME280;24980;48.874;2.332;2023-03-01T04:28:37;102114.30;;;28.34;32.32
39275;BME280;24980;48.874;2.332;2023-03-01T04:31:08;102118.91;;;28.32;32.33
39275;BME280;24980;48.874;2.332;2023-03-01T04:33:36;102111.02;;;28.31;32.34
39275;BME280;24980;48.874;2.332;2023-03-01T04:36:06;102112.99;;;28.31;32.35
39275;BME280;24980;48.874;2.332;2023-03-01T04:38:38;102108.12;;;28.31;32.34
39275;BME280;24980;48.874;2.332;2023-03-01T04:41:10;102108.25;;;28.32;32.34
39275;BME280;24980;48.874;2.332;2023-03-01T04:43:39;102109.27;;;28.33;32.34
39275;BME280;24980;48.874;2.332;2023-03-01T04:46:12;102107.52;;;28.32;32.34
39275;BME280;24980;48.874;2.332;2023-03-01T04:48:41;102106.20;;;28.32;32.35
39275;BME280;24980;48.874;2.332;2023-03-01T04:51:13;102103.72;;;28.33;32.36
39275;BME280;24980;48.874;2.332;2023-03-01T04:53:41;102100.48;;;28.33;32.39
39275;BME280;24980;48.874;2.332;2023-03-01T04:56:12;102100.12;;;28.34;32.39
39275;BME280;24980;48.874;2.332;2023-03-01T04:58:42;102098.44;;;28.33;32.41
39275;BME280;24980;48.874;2.332;2023-03-01T05:01:17;102091.23;;;28.32;32.40
39275;BME280;24980;48.874;2.332;2023-03-01T05:03:43;102094.91;;;28.32;32.41
39275;BME280;24980;48.874;2.332;2023-03-01T05:06:15;102092.73;;;28.32;32.40
39275;BME280;24980;48.874;2.332;2023-03-01T05:08:43;102092.73;;;28.33;32.39
39275;BME280;24980;48.874;2.332;2023-03-01T05:11:14;102096.73;;;28.33;32.38
39275;BME280;24980;48.874;2.332;2023-03-01T05:13:44;102100.06;;;28.32;32.38
39275;BME280;24980;48.874;2.332;2023-03-01T05:16:16;102093.33;;;28.32;32.38
39275;BME280;24980;48.874;2.332;2023-03-01T05:18:45;102094.00;;;28.34;32.35
39275;BME280;24980;48.874;2.332;2023-03-01T05:21:16;102094.43;;;28.33;32.36
39275;BME280;24980;48.874;2.332;2023-03-01T05:23:46;102096.66;;;28.32;32.38
39275;BME280;24980;48.874;2.332;2023-03-01T05:26:20;102091.25;;;28.31;32.37
39275;BME280;24980;48.874;2.332;2023-03-01T05:28:46;102088.10;;;28.30;32.37
39275;BME280;24980;48.874;2.332;2023-03-01T05:31:16;102092.06;;;28.29;32.38
39275;BME280;24980;48.874;2.332;2023-03-01T05:33:46;102093.90;;;28.30;32.38
39275;BME280;24980;48.874;2.332;2023-03-01T05:36:17;102086.31;;;28.30;32.38
39275;BME280;24980;48.874;2.332;2023-03-01T05:38:47;102086.59;;;28.32;32.38
39275;BME280;24980;48.874;2.332;2023-03-01T05:41:17;102088.52;;;28.35;32.39
39275;BME280;24980;48.874;2.332;2023-03-01T05:43:48;102089.12;;;28.35;32.41
39275;BME280;24980;48.874;2.332;2023-03-01T05:46:18;102082.12;;;28.35;32.45
39275;BME280;24980;48.874;2.332;2023-03-01T05:48:48;102084.30;;;28.36;32.46
39275;BME280;24980;48.874;2.332;2023-03-01T05:51:18;102082.85;;;28.36;32.47
39275;BME280;24980;48.874;2.332;2023-03-01T05:53:49;102086.73;;;28.35;32.48
39275;BME280;24980;48.874;2.332;2023-03-01T05:56:19;102082.73;;;28.34;32.49
39275;BME280;24980;48.874;2.332;2023-03-01T05:58:49;102083.09;;;28.33;32.51
39275;BME280;24980;48.874;2.332;2023-03-01T06:01:20;102082.49;;;28.33;32.51
39275;BME280;24980;48.874;2.332;2023-03-01T06:03:53;102082.73;;;28.34;32.52
39275;BME280;24980;48.874;2.332;2023-03-01T06:06:20;102079.67;;;28.33;32.54
39275;BME280;24980;48.874;2.332;2023-03-01T06:08:51;102079.34;;;28.33;32.56
39275;BME280;24980;48.874;2.332;2023-03-01T06:11:21;102081.30;;;28.32;32.59
39275;BME280;24980;48.874;2.332;2023-03-01T06:13:51;102077.38;;;28.33;32.60
39275;BME280;24980;48.874;2.332;2023-03-01T06:16:21;102071.01;;;28.35;32.61
39275;BME280;24980;48.874;2.332;2023-03-01T06:18:51;102067.15;;;28.37;32.63
39275;BME280;24980;48.874;2.332;2023-03-01T06:21:22;102059.73;;;28.37;32.63
39275;BME280;24980;48.874;2.332;2023-03-01T06:23:53;102061.53;;;28.36;32.65
39275;BME280;24980;48.874;2.332;2023-03-01T06:26:23;102054.58;;;28.35;32.66
39275;BME280;24980;48.874;2.332;2023-03-01T06:28:53;102055.22;;;28.36;32.67
39275;BME280;24980;48.874;2.332;2023-03-01T06:31:23;102059.05;;;28.37;32.69
39275;BME280;24980;48.874;2.332;2023-03-01T06:33:54;102055.33;;;28.39;32.68
39275;BME280;24980;48.874;2.332;2023-03-01T06:36:24;102063.17;;;28.39;32.69
39275;BME280;24980;48.874;2.332;2023-03-01T06:38:55;102060.75;;;28.37;32.71
39275;BME280;24980;48.874;2.332;2023-03-01T06:41:25;102058.95;;;28.38;32.73
39275;BME280;24980;48.874;2.332;2023-03-01T06:43:55;102055.55;;;28.38;32.74
39275;BME280;24980;48.874;2.332;2023-03-01T06:46:25;102055.76;;;28.39;32.76
39275;BME280;24980;48.874;2.332;2023-03-01T06:48:56;102054.47;;;28.39;32.76
39275;BME280;24980;48.874;2.332;2023-03-01T06:51:27;102051.53;;;28.38;32.79
39275;BME280;24980;48.874;2.332;2023-03-01T06:53:58;102054.29;;;28.36;32.81
39275;BME280;24980;48.874;2.332;2023-03-01T06:56:29;102049.77;;;28.36;32.82
39275;BME280;24980;48.874;2.332;2023-03-01T06:59:00;102051.80;;;28.38;32.82
39275;BME280;24980;48.874;2.332;2023-03-01T07:01:31;102042.41;;;28.38;32.82
39275;BME280;24980;48.874;2.332;2023-03-01T07:04:04;102046.17;;;28.37;32.83
39275;BME280;24980;48.874;2.332;2023-03-01T07:06:31;102048.27;;;28.35;32.87
39275;BME280;24980;48.874;2.332;2023-03-01T07:09:02;102043.52;;;28.34;32.88
39275;BME280;24980;48.874;2.332;2023-03-01T07:11:33;102044.59;;;28.32;32.90
39275;BME280;24980;48.874;2.332;2023-03-01T07:14:03;102040.62;;;28.33;32.89
39275;BME280;24980;48.874;2.332;2023-03-01T07:16:34;102043.52;;;28.33;32.88
39275;BME280;24980;48.874;2.332;2023-03-01T07:19:06;102042.77;;;28.32;32.88
39275;BME280;24980;48.874;2.332;2023-03-01T07:21:35;102042.56;;;28.30;32.89
39275;BME280;24980;48.874;2.332;2023-03-01T07:24:07;102047.86;;;28.29;32.89
39275;BME280;24980;48.874;2.332;2023-03-01T07:26:37;102048.80;;;28.29;32.90
39275;BME280;24980;48.874;2.332;2023-03-01T07:29:07;102041.88;;;28.31;32.89
39275;BME280;24980;48.874;2.332;2023-03-01T07:31:36;102042.72;;;28.31;32.89
39275;BME280;24980;48.874;2.332;2023-03-01T07:34:08;102043.76;;;28.30;32.90
39275;BME280;24980;48.874;2.332;2023-03-01T07:36:38;102042.22;;;28.26;32.96
39275;BME280;24980;48.874;2.332;2023-03-01T07:39:07;102040.17;;;28.26;32.96
39275;BME280;24980;48.874;2.332;2023-03-01T07:41:38;102038.97;;;28.27;32.98
39275;BME280;24980;48.874;2.332;2023-03-01T07:44:14;102035.58;;;28.29;32.98
39275;BME280;24980;48.874;2.332;2023-03-01T07:46:45;102035.32;;;28.30;32.99
39275;BME280;24980;48.874;2.332;2023-03-01T07:49:10;102032.89;;;28.29;33.00
39275;BME280;24980;48.874;2.332;2023-03-01T07:51:40;102039.12;;;28.28;33.02
39275;BME280;24980;48.874;2.332;2023-03-01T07:54:11;102039.55;;;28.28;33.02
39275;BME280;24980;48.874;2.332;2023-03-01T07:56:41;102040.09;;;28.29;33.01
39275;BME280;24980;48.874;2.332;2023-03-01T07:59:12;102028.45;;;28.29;32.97
39275;BME280;24980;48.874;2.332;2023-03-01T08:01:43;102033.08;;;28.28;32.80
39275;BME280;24980;48.874;2.332;2023-03-01T08:04:12;102033.52;;;28.26;32.68
39275;BME280;24980;48.874;2.332;2023-03-01T08:06:44;102037.05;;;28.25;32.60
39275;BME280;24980;48.874;2.332;2023-03-01T08:09:13;102039.05;;;28.27;32.55
39275;BME280;24980;48.874;2.332;2023-03-01T08:11:44;102042.23;;;28.30;32.52
39275;BME280;24980;48.874;2.332;2023-03-01T08:14:15;102044.34;;;28.31;32.51
39275;BME280;24980;48.874;2.332;2023-03-01T08:16:44;102043.84;;;28.30;32.50
39275;BME280;24980;48.874;2.332;2023-03-01T08:19:14;102039.08;;;28.29;32.51
39275;BME280;24980;48.874;2.332;2023-03-01T08:21:45;102039.67;;;28.30;32.51
39275;BME280;24980;48.874;2.332;2023-03-01T08:24:17;102039.59;;;28.29;32.51
39275;BME280;24980;48.874;2.332;2023-03-01T08:26:46;102039.50;;;28.30;32.51
39275;BME280;24980;48.874;2.332;2023-03-01T08:29:16;102030.62;;;28.31;32.50
39275;BME280;24980;48.874;2.332;2023-03-01T08:31:48;102035.98;;;28.31;32.50
39275;BME280;24980;48.874;2.332;2023-03-01T08:34:18;102033.58;;;28.29;32.51
39275;BME280;24980;48.874;2.332;2023-03-01T08:36:51;102034.05;;;28.29;32.52
39275;BME280;24980;48.874;2.332;2023-03-01T08:39:20;102032.08;;;28.30;32.51
39275;BME280;24980;48.874;2.332;2023-03-01T08:41:49;102029.50;;;28.31;32.52
39275;BME280;24980;48.874;2.332;2023-03-01T08:44:20;102019.96;;;28.31;32.56
39275;BME280;24980;48.874;2.332;2023-03-01T08:46:50;102013.67;;;28.29;32.59
39275;BME280;24980;48.874;2.332;2023-03-01T08:49:21;102014.23;;;28.28;32.61
39275;BME280;24980;48.874;2.332;2023-03-01T08:51:52;102007.51;;;28.26;32.63
39275;BME280;24980;48.874;2.332;2023-03-01T08:54:23;102006.15;;;28.26;32.63
39275;BME280;24980;48.874;2.332;2023-03-01T08:56:53;102008.45;;;28.26;32.61
39275;BME280;24980;48.874;2.332;2023-03-01T08:59:25;102012.38;;;28.26;32.59
39275;BME280;24980;48.874;2.332;2023-03-01T09:01:54;102007.48;;;28.24;32.56
39275;BME280;24980;48.874;2.332;2023-03-01T09:04:25;102001.24;;;28.21;32.54
39275;BME280;24980;48.874;2.332;2023-03-01T09:06:57;101990.47;;;28.18;32.51
39275;BME280;24980;48.874;2.332;2023-03-01T09:09:25;101986.39;;;28.18;32.50
39275;BME280;24980;48.874;2.332;2023-03-01T09:11:55;101984.09;;;28.18;32.47
39275;BME280;24980;48.874;2.332;2023-03-01T09:14:27;101987.00;;;28.17;32.43
39275;BME280;24980;48.874;2.332;2023-03-01T09:16:56;101979.59;;;28.16;32.41
39275;BME280;24980;48.874;2.332;2023-03-01T09:19:29;101977.55;;;28.16;32.39
39275;BME280;24980;48.874;2.332;2023-03-01T09:21:56;101974.47;;;28.17;32.35
39275;BME280;24980;48.874;2.332;2023-03-01T09:24:26;101966.96;;;28.17;32.33
39275;BME280;24980;48.874;2.332;2023-03-01T09:26:57;101967.90;;;28.17;32.30
39275;BME280;24980;48.874;2.332;2023-03-01T09:29:27;101966.45;;;28.17;32.26
39275;BME280;24980;48.874;2.332;2023-03-01T09:31:57;101964.93;;;28.16;32.21
39275;BME280;24980;48.874;2.332;2023-03-01T09:34:27;101961.81;;;28.15;32.18
39275;BME280;24980;48.874;2.332;2023-03-01T09:36:58;101962.85;;;28.14;32.16
39275;BME280;24980;48.874;2.332;2023-03-01T09:39:28;101960.55;;;28.14;32.12
39275;BME280;24980;48.874;2.332;2023-03-01T09:42:04;101953.47;;;28.15;32.09
39275;BME280;24980;48.874;2.332;2023-03-01T09:44:53;101953.76;;;28.16;32.04
39275;BME280;24980;48.874;2.332;2023-03-01T09:47:00;101945.92;;;28.16;32.01
39275;BME280;24980;48.874;2.332;2023-03-01T09:49:32;101938.92;;;28.17;31.98
39275;BME280;24980;48.874;2.332;2023-03-01T09:54:33;101947.84;;;28.15;31.95
39275;BME280;24980;48.874;2.332;2023-03-01T09:57:24;101944.68;;;28.15;31.92
39275;BME280;24980;48.874;2.332;2023-03-01T10:02:35;101942.00;;;28.16;31.85
39275;BME280;24980;48.874;2.332;2023-03-01T10:04:45;101939.48;;;28.15;31.84
39275;BME280;24980;48.874;2.332;2023-03-01T10:09:37;101926.86;;;28.11;31.78
39275;BME280;24980;48.874;2.332;2023-03-01T10:12:11;101930.20;;;28.11;31.76
39275;BME280;24980;48.874;2.332;2023-03-01T10:14:39;101933.50;;;28.12;31.73
39275;BME280;24980;48.874;2.332;2023-03-01T10:17:44;101926.25;;;28.12;31.72
39275;BME280;24980;48.874;2.332;2023-03-01T10:19:40;101918.36;;;28.14;31.70
39275;BME280;24980;48.874;2.332;2023-03-01T10:22:21;101918.27;;;28.14;31.69
39275;BME280;24980;48.874;2.332;2023-03-01T10:24:40;101919.13;;;28.13;31.69
39275;BME280;24980;48.874;2.332;2023-03-01T10:27:24;101914.16;;;28.12;31.69
39275;BME280;24980;48.874;2.332;2023-03-01T10:29:50;101906.40;;;28.12;31.65
39275;BME280;24980;48.874;2.332;2023-03-01T10:32:10;101903.52;;;28.14;31.64
39275;BME280;24980;48.874;2.332;2023-03-01T10:34:39;101908.89;;;28.14;31.61
39275;BME280;24980;48.874;2.332;2023-03-01T10:37:18;101913.89;;;28.12;31.61
39275;BME280;24980;48.874;2.332;2023-03-01T10:40:05;101910.47;;;28.09;31.59
39275;BME280;24980;48.874;2.332;2023-03-01T10:42:25;101909.64;;;28.07;31.58
39275;BME280;24980;48.874;2.332;2023-03-01T10:44:48;101907.44;;;28.07;31.57
39275;BME280;24980;48.874;2.332;2023-03-01T10:47:16;101904.38;;;28.10;31.53
39275;BME280;24980;48.874;2.332;2023-03-01T10:49:58;101898.83;;;28.11;31.50
39275;BME280;24980;48.874;2.332;2023-03-01T10:52:21;101901.14;;;28.10;31.49
39275;BME280;24980;48.874;2.332;2023-03-01T10:54:57;101896.52;;;28.07;31.48
39275;BME280;24980;48.874;2.332;2023-03-01T10:57:28;101899.36;;;28.04;31.47
39275;BME280;24980;48.874;2.332;2023-03-01T10:59:43;101893.88;;;28.03;31.44
39275;BME280;24980;48.874;2.332;2023-03-01T11:02:18;101888.36;;;28.00;31.43
39275;BME280;24980;48.874;2.332;2023-03-01T11:05:19;101891.73;;;27.99;31.41
39275;BME280;24980;48.874;2.332;2023-03-01T11:07:13;101888.59;;;27.99;31.38
39275;BME280;24980;48.874;2.332;2023-03-01T11:09:44;101886.30;;;27.98;31.36
39275;BME280;24980;48.874;2.332;2023-03-01T11:12:15;101883.91;;;27.97;31.34
39275;BME280;24980;48.874;2.332;2023-03-01T11:14:53;101884.81;;;27.96;31.32
39275;BME280;24980;48.874;2.332;2023-03-01T11:17:25;101881.68;;;27.95;31.31
39275;BME280;24980;48.874;2.332;2023-03-01T11:22:19;101869.50;;;27.94;31.27
39275;BME280;24980;48.874;2.332;2023-03-01T11:24:49;101868.04;;;27.95;31.24
39275;BME280;24980;48.874;2.332;2023-03-01T11:27:24;101870.44;;;27.95;31.23
39275;BME280;24980;48.874;2.332;2023-03-01T11:30:05;101869.94;;;27.94;31.22
39275;BME280;24980;48.874;2.332;2023-03-01T11:32:20;101870.48;;;27.93;31.21
39275;BME280;24980;48.874;2.332;2023-03-01T11:35:10;101869.05;;;27.92;31.21
39275;BME280;24980;48.874;2.332;2023-03-01T11:40:11;101858.66;;;27.92;31.17
39275;BME280;24980;48.874;2.332;2023-03-01T11:42:30;101846.23;;;27.90;31.17
39275;BME280;24980;48.874;2.332;2023-03-01T11:44:55;101852.70;;;27.90;31.17
39275;BME280;24980;48.874;2.332;2023-03-01T11:47:55;101846.86;;;27.90;31.17
39275;BME280;24980;48.874;2.332;2023-03-01T11:50:14;101843.30;;;27.90;31.16
39275;BME280;24980;48.874;2.332;2023-03-01T12:05:14;101829.34;;;27.91;31.18
39275;BME280;24980;48.874;2.332;2023-03-01T12:07:52;101825.09;;;27.91;31.17
39275;BME280;24980;48.874;2.332;2023-03-01T12:15:27;101812.99;;;27.91;31.22
39275;BME280;24980;48.874;2.332;2023-03-01T12:17:48;101818.17;;;27.93;31.23
39275;BME280;24980;48.874;2.332;2023-03-01T12:20:18;101813.27;;;27.93;31.24
39275;BME280;24980;48.874;2.332;2023-03-01T12:22:45;101805.16;;;27.94;31.25
39275;BME280;24980;48.874;2.332;2023-03-01T12:25:21;101806.27;;;27.94;31.27
39275;BME280;24980;48.874;2.332;2023-03-01T12:27:42;101806.25;;;27.95;31.28
39275;BME280;24980;48.874;2.332;2023-03-01T12:30:22;101807.12;;;27.94;31.29
39275;BME280;24980;48.874;2.332;2023-03-01T12:35:25;101788.89;;;27.94;31.31
39275;BME280;24980;48.874;2.332;2023-03-01T12:40:41;101778.52;;;27.97;31.30
39275;BME280;24980;48.874;2.332;2023-03-01T12:50:17;101771.44;;;27.97;31.32
39275;BME280;24980;48.874;2.332;2023-03-01T12:52:50;101758.78;;;27.96;31.34
39275;BME280;24980;48.874;2.332;2023-03-01T12:55:29;101762.87;;;27.96;31.36
39275;BME280;24980;48.874;2.332;2023-03-01T12:57:42;101757.10;;;27.98;31.36
39275;BME280;24980;48.874;2.332;2023-03-01T13:00:31;101742.20;;;27.98;31.36
39275;BME280;24980;48.874;2.332;2023-03-01T13:02:50;101733.83;;;27.98;31.37
39275;BME280;24980;48.874;2.332;2023-03-01T13:08:02;101726.75;;;27.99;31.39
39275;BME280;24980;48.874;2.332;2023-03-01T13:10:46;101719.17;;;27.99;31.39
39275;BME280;24980;48.874;2.332;2023-03-01T13:12:50;101710.66;;;27.98;31.42
39275;BME280;24980;48.874;2.332;2023-03-01T13:15:29;101701.89;;;27.97;31.43
39275;BME280;24980;48.874;2.332;2023-03-01T13:17:43;101698.03;;;27.99;31.44
39275;BME280;24980;48.874;2.332;2023-03-01T13:20:13;101701.90;;;28.00;31.44
39275;BME280;24980;48.874;2.332;2023-03-01T13:22:41;101698.48;;;28.01;31.43
39275;BME280;24980;48.874;2.332;2023-03-01T13:25:19;101693.02;;;28.02;31.43
39275;BME280;24980;48.874;2.332;2023-03-01T13:27:43;101693.02;;;28.02;31.43
39275;BME280;24980;48.874;2.332;2023-03-01T13:32:43;101680.27;;;28.03;31.45
39275;BME280;24980;48.874;2.332;2023-03-01T13:37:44;101681.34;;;28.05;31.48
39275;BME280;24980;48.874;2.332;2023-03-01T13:42:51;101667.30;;;28.06;31.48
39275;BME280;24980;48.874;2.332;2023-03-01T13:45:24;101673.05;;;28.07;31.48
39275;BME280;24980;48.874;2.332;2023-03-01T13:47:45;101661.11;;;28.07;31.47
39275;BME280;24980;48.874;2.332;2023-03-01T13:50:21;101659.66;;;28.07;31.45
39275;BME280;24980;48.874;2.332;2023-03-01T13:52:49;101661.67;;;28.06;31.46
39275;BME280;24980;48.874;2.332;2023-03-01T13:55:23;101654.33;;;28.01;31.45
39275;BME280;24980;48.874;2.332;2023-03-01T13:57:53;101651.76;;;27.99;31.45
39275;BME280;24980;48.874;2.332;2023-03-01T14:00:35;101646.72;;;27.96;31.45
39275;BME280;24980;48.874;2.332;2023-03-01T14:03:05;101640.20;;;27.94;31.44